Time;durP1;ratioP1;P1;durP2;ratioP2;P2;SDS_P1;SDS_P2;PMS_P1;PMS_P2;Temp;Humidity;BMP_temperature;BMP_pressure;BME280_temperature;BME280_humidity;BME280_pressure;Samples;Min_cycle;Max_cycle;Signal;HPM_P1;HPM_P2
2021/10/25 04:30:23;;;;;;;1.48;1.48;;;;;;;1.15;100.00;99370.03;4842403;29;20034;-69
2021/10/25 04:32:49;;;;;;;2.55;2.35;;;;;;;1.02;100.00;99379.03;4841540;29;20440;-68
2021/10/25 04:35:14;;;;;;;1.38;1.38;;;;;;;1.07;100.00;99377.47;4841509;29;20029;-69
2021/10/25 04:37:40;;;;;;;2.00;1.90;;;;;;;1.03;100.00;99375.66;4841776;29;20034;-68
2021/10/25 04:40:08;;;;;;;1.17;1.17;;;;;;;1.00;100.00;99370.44;4841669;29;20037;-69
2021/10/25 04:42:34;;;;;;;1.52;1.48;;;;;;;1.08;100.00;99380.91;4848779;29;20028;-68
2021/10/25 04:44:59;;;;;;;1.48;1.38;;;;;;;1.05;100.00;99379.09;4857659;29;20045;-68
2021/10/25 04:47:25;;;;;;;2.67;1.70;;;;;;;1.01;100.00;99374.72;4859878;29;20033;-69
2021/10/25 04:49:51;;;;;;;3.53;2.72;;;;;;;1.01;100.00;99378.16;4859997;29;20026;-69
2021/10/25 04:52:16;;;;;;;1.85;1.58;;;;;;;1.06;100.00;99372.31;4859731;29;20025;-69
2021/10/25 04:54:42;;;;;;;3.35;3.15;;;;;;;1.03;100.00;99365.44;4859946;29;20029;-69
2021/10/25 04:57:08;;;;;;;1.27;1.23;;;;;;;1.08;100.00;99371.56;4859759;29;20049;-69
2021/10/25 04:59:33;;;;;;;1.92;1.65;;;;;;;1.11;100.00;99376.72;4859836;29;20064;-69
2021/10/25 05:01:59;;;;;;;3.15;2.92;;;;;;;1.07;100.00;99380.03;4858730;29;20350;-69
2021/10/25 05:04:24;;;;;;;1.80;1.58;;;;;;;1.06;100.00;99370.63;4859764;29;20124;-69
2021/10/25 05:06:50;;;;;;;2.22;1.67;;;;;;;1.02;100.00;99373.94;4859655;29;20034;-69
2021/10/25 05:09:16;;;;;;;1.77;1.67;;;;;;;1.07;100.00;99379.19;4859783;29;20086;-69
2021/10/25 05:11:42;;;;;;;4.13;1.75;;;;;;;1.12;100.00;99380.16;4858433;29;20025;-69
2021/10/25 05:14:07;;;;;;;2.50;2.17;;;;;;;1.12;100.00;99386.13;4851953;29;20618;-69
2021/10/25 05:16:33;;;;;;;3.08;2.08;;;;;;;1.13;100.00;99377.66;4859380;29;20140;-69
2021/10/25 05:18:58;;;;;;;1.80;1.70;;;;;;;1.12;100.00;99370.81;4859625;29;20109;-68
2021/10/25 05:21:24;;;;;;;1.45;1.42;;;;;;;1.11;100.00;99369.06;4858198;29;20025;-68
2021/10/25 05:23:49;;;;;;;1.80;1.70;;;;;;;1.11;100.00;99368.22;4859620;29;20065;-68
2021/10/25 05:26:14;;;;;;;2.38;1.90;;;;;;;1.03;100.00;99366.31;4859549;29;20547;-68
2021/10/25 05:28:40;;;;;;;3.25;2.95;;;;;;;1.07;100.00;99357.06;4859614;29;20475;-69
2021/10/25 05:31:06;;;;;;;2.10;2.00;;;;;;;0.99;100.00;99355.97;4859605;29;20520;-69
2021/10/25 05:33:32;;;;;;;2.53;2.33;;;;;;;1.01;100.00;99361.97;4859292;29;20029;-68
2021/10/25 05:35:58;;;;;;;1.92;1.83;;;;;;;1.00;100.00;99361.09;4859525;29;20041;-69
2021/10/25 05:38:23;;;;;;;2.05;1.88;;;;;;;1.01;100.00;99361.97;4859462;29;20037;-69
2021/10/25 05:40:49;;;;;;;3.33;3.13;;;;;;;1.01;100.00;99351.75;4858620;29;20033;-68
2021/10/25 05:43:14;;;;;;;1.00;1.00;;;;;;;1.06;100.00;99359.56;4851002;29;20034;-69
2021/10/25 05:45:39;;;;;;;3.03;2.75;;;;;;;0.99;100.00;99358.53;4859362;29;20101;-68
2021/10/25 05:48:05;;;;;;;1.25;1.25;;;;;;;0.99;100.00;99353.41;4859255;29;20036;-68
2021/10/25 05:50:32;;;;;;;2.22;2.05;;;;;;;1.03;100.00;99352.69;4859581;29;20062;-69
2021/10/25 05:52:59;;;;;;;5.18;3.80;;;;;;;0.98;100.00;99347.47;4859354;29;20033;-69
2021/10/25 05:55:25;;;;;;;2.30;2.13;;;;;;;1.05;100.00;99350.19;4859356;29;20026;-68
2021/10/25 05:57:52;;;;;;;2.22;2.00;;;;;;;1.08;100.00;99357.94;4859454;29;20501;-68
2021/10/25 06:00:21;;;;;;;1.55;1.52;;;;;;;0.99;100.00;99361.06;4859164;29;20725;-69
2021/10/25 06:02:56;;;;;;;2.13;1.37;;;;;;;0.92;100.00;99361.69;4859092;29;20037;-69
2021/10/25 06:05:23;;;;;;;2.00;1.90;;;;;;;0.90;100.00;99363.34;4859501;29;20025;-68
2021/10/25 06:07:49;;;;;;;2.35;2.20;;;;;;;0.91;100.00;99365.06;4859439;29;20108;-69
2021/10/25 06:10:16;;;;;;;6.40;1.33;;;;;;;0.91;100.00;99359.97;4859235;29;20113;-69
2021/10/25 06:12:45;;;;;;;1.92;1.50;;;;;;;0.94;100.00;99352.41;4852862;29;20033;-69
2021/10/25 06:15:15;;;;;;;1.90;1.80;;;;;;;1.03;100.00;99357.81;4861351;29;20062;-69
2021/10/25 06:17:51;;;;;;;1.70;1.60;;;;;;;1.01;100.00;99356.88;4862766;29;20037;-69
2021/10/25 06:20:18;;;;;;;2.17;2.08;;;;;;;0.99;100.00;99363.63;4862640;29;20029;-69
2021/10/25 06:22:43;;;;;;;1.60;1.60;;;;;;;0.99;100.00;99363.63;4862457;29;20399;-69
2021/10/25 06:25:13;;;;;;;2.67;2.50;;;;;;;1.12;100.00;99365.72;4862675;29;20037;-68
2021/10/25 06:27:38;;;;;;;1.67;1.60;;;;;;;1.06;100.00;99365.53;4862345;29;20459;-68
2021/10/25 06:30:05;;;;;;;3.00;2.65;;;;;;;1.10;100.00;99362.25;4862340;29;20034;-69
2021/10/25 06:32:31;;;;;;;1.88;1.73;;;;;;;1.09;100.00;99363.06;4862297;29;20108;-69
2021/10/25 06:34:59;;;;;;;1.77;1.70;;;;;;;1.13;100.00;99375.09;4862300;29;20056;-68
2021/10/25 06:37:28;;;;;;;2.83;2.63;;;;;;;1.27;100.00;99371.25;4862072;29;20068;-69
2021/10/25 06:39:55;;;;;;;1.87;1.77;;;;;;;1.11;100.00;99379.28;4862128;29;20506;-69
2021/10/25 06:42:21;;;;;;;2.55;2.45;;;;;;;1.27;100.00;99376.38;4856866;29;20294;-69
2021/10/25 06:47:14;;;;;;;2.05;1.88;;;;;;;1.16;100.00;99393.06;4862153;29;20036;-69
2021/10/25 06:49:40;;;;;;;2.63;2.17;;;;;;;1.34;100.00;99396.94;4862094;29;20021;-69
2021/10/25 06:52:05;;;;;;;1.80;1.70;;;;;;;1.41;100.00;99403.97;4861808;29;20026;-69
2021/10/25 06:54:30;;;;;;;2.58;2.17;;;;;;;1.47;100.00;99396.50;4861884;29;20029;-68
2021/10/25 06:56:56;;;;;;;2.10;2.00;;;;;;;1.60;99.86;99384.94;4861704;29;20048;-69
2021/10/25 06:59:22;;;;;;;3.30;2.97;;;;;;;1.73;99.42;99387.84;4862044;29;20109;-69
2021/10/25 07:01:47;;;;;;;2.33;1.75;;;;;;;1.83;98.87;99385.53;4861491;29;20112;-69
2021/10/25 07:04:12;;;;;;;2.28;2.17;;;;;;;2.03;98.69;99392.03;4861782;29;20048;-69
2021/10/25 07:06:38;;;;;;;2.25;2.08;;;;;;;2.11;97.56;99398.22;4861608;29;20029;-69
2021/10/25 07:09:05;;;;;;;3.38;2.67;;;;;;;2.11;97.24;99400.78;4861679;29;20108;-68
2021/10/25 07:11:31;;;;;;;2.65;2.45;;;;;;;2.47;96.05;99402.53;4860021;29;20399;-69
2021/10/25 07:13:56;;;;;;;2.78;2.58;;;;;;;2.51;95.87;99399.19;4854025;29;20024;-68
2021/10/25 07:16:27;;;;;;;2.10;1.38;;;;;;;2.49;95.93;99393.19;4861573;29;20037;-69
2021/10/25 08:10:02;;;;;;;3.13;2.38;;;;;;;10.94;57.15;99369.34;4860511;29;20061;-73
2021/10/25 08:12:29;;;;;;;3.13;2.83;;;;;;;10.74;58.46;99361.75;4854789;29;20159;-72
2021/10/25 08:15:03;;;;;;;3.17;2.15;;;;;;;12.40;54.51;99351.03;4857499;29;20033;-72
2021/10/25 08:17:45;;;;;;;4.50;2.47;;;;;;;12.51;55.51;99343.88;4860414;29;20258;-73
2021/10/25 08:20:11;;;;;;;2.47;2.28;;;;;;;11.11;57.45;99351.84;4860355;29;20491;-73
2021/10/25 08:22:37;;;;;;;3.15;2.45;;;;;;;8.48;67.01;99369.66;4860351;29;20030;-72
2021/10/25 08:25:04;;;;;;;11.38;3.53;;;;;;;7.81;71.43;99364.38;4860345;29;20042;-72
2021/10/25 08:27:30;;;;;;;2.42;2.22;;;;;;;7.62;72.81;99362.59;4860276;29;20093;-72
2021/10/25 08:29:55;;;;;;;5.93;2.53;;;;;;;7.11;74.52;99369.28;4860242;29;20107;-72
2021/10/25 08:40:01;;;;;;;2.17;2.05;;;;;;;7.35;75.69;99359.09;4860260;29;20531;-72
2021/10/25 08:42:31;;;;;;;3.97;2.10;;;;;;;7.99;72.04;99354.09;4854176;29;20030;-72
2021/10/25 08:45:12;;;;;;;3.67;2.72;;;;;;;8.14;72.03;99357.56;4857350;29;20048;-72
2021/10/25 08:47:40;;;;;;;3.60;2.97;;;;;;;6.99;76.01;99370.06;4860239;29;20029;-72
2021/10/25 08:50:13;;;;;;;4.93;2.65;;;;;;;6.52;79.62;99380.00;4860192;29;20029;-72
2021/10/25 08:52:39;;;;;;;3.92;3.13;;;;;;;7.40;77.64;99367.69;4859814;29;20053;-72
2021/10/25 08:55:06;;;;;;;4.18;3.05;;;;;;;8.41;73.61;99362.78;4860086;29;20032;-72
2021/10/25 08:57:33;;;;;;;4.20;3.10;;;;;;;9.00;70.18;99351.53;4859654;29;20491;-72
2021/10/25 09:00:06;;;;;;;3.90;3.20;;;;;;;8.70;70.58;99354.13;4859742;29;20037;-72
2021/10/25 09:02:33;;;;;;;3.85;2.47;;;;;;;7.71;74.47;99357.47;4859719;29;20100;-72
2021/10/25 09:05:11;;;;;;;3.17;2.88;;;;;;;8.07;73.77;99355.81;4859900;29;20044;-72
2021/10/25 09:07:52;;;;;;;3.53;3.22;;;;;;;7.41;76.47;99353.94;4859801;29;20407;-72
2021/10/25 09:10:23;;;;;;;1.77;1.67;;;;;;;7.57;76.55;99348.84;4859734;29;20040;-72
2021/10/25 09:13:02;;;;;;;3.38;2.65;;;;;;;7.58;76.98;99355.72;4851150;29;20030;-72
2021/10/25 09:15:30;;;;;;;2.58;2.10;;;;;;;7.67;76.35;99350.59;4821880;29;20042;-72
2021/10/25 09:18:06;;;;;;;2.30;1.95;;;;;;;7.70;76.70;99340.28;4823069;29;20035;-72
2021/10/25 09:20:40;;;;;;;3.25;2.95;;;;;;;7.98;75.48;99342.06;4822828;29;20049;-72
2021/10/25 09:23:10;;;;;;;3.17;2.38;;;;;;;7.87;76.54;99333.44;4823077;29;20026;-72
2021/10/25 09:25:37;;;;;;;2.58;2.40;;;;;;;8.02;75.88;99332.59;4823080;29;20033;-72
2021/10/25 09:28:21;;;;;;;2.10;2.00;;;;;;;8.71;73.96;99324.88;4822991;29;20030;-72
2021/10/25 09:30:52;;;;;;;2.95;1.92;;;;;;;8.83;71.99;99330.00;4823049;29;20030;-72
2021/10/25 09:33:22;;;;;;;2.72;2.40;;;;;;;9.29;71.53;99324.72;4822817;29;20034;-72
2021/10/25 09:35:59;;;;;;;4.93;2.92;;;;;;;10.01;67.93;99317.41;4822789;29;20518;-72
2021/10/25 09:39:07;;;;;;;2.85;2.53;;;;;;;9.70;68.08;99326.22;4823052;29;20113;-72
2021/10/25 09:49:09;;;;;;;3.65;2.28;;;;;;;11.86;62.85;99312.03;4863102;29;20069;-72
2021/10/25 09:51:41;;;;;;;3.53;2.40;;;;;;;11.68;63.52;99307.06;4862823;29;20022;-72
2021/10/25 09:54:09;;;;;;;2.75;1.90;;;;;;;10.84;64.32;99314.13;4862955;29;20038;-73
2021/10/25 09:56:43;;;;;;;2.95;2.65;;;;;;;10.47;67.14;99321.41;4862990;29;20077;-73
2021/10/25 10:01:38;;;;;;;3.85;2.63;;;;;;;10.38;67.44;99319.75;4863222;29;20033;-72
2021/10/25 10:04:05;;;;;;;4.03;2.30;;;;;;;10.74;66.77;99312.50;4862804;29;20076;-73
2021/10/25 10:06:31;;;;;;;4.75;3.03;;;;;;;11.17;64.97;99312.03;4862663;29;20029;-72
2021/10/25 10:08:58;;;;;;;4.60;3.58;;;;;;;11.33;63.76;99298.00;4862648;29;20459;-72
2021/10/25 10:11:25;;;;;;;5.93;3.10;;;;;;;11.62;62.38;99299.34;4861141;29;20495;-73
2021/10/25 10:13:50;;;;;;;2.72;2.40;;;;;;;11.79;62.16;99294.78;4854829;29;20030;-72
2021/10/25 10:16:16;;;;;;;3.28;2.88;;;;;;;13.32;58.94;99281.72;4862535;29;20041;-72
2021/10/25 10:18:47;;;;;;;3.08;2.50;;;;;;;14.13;55.14;99283.34;4862603;29;20376;-73
2021/10/25 10:21:13;;;;;;;2.75;2.55;;;;;;;14.89;53.35;99283.16;4862228;29;20030;-73
2021/10/25 10:23:44;;;;;;;5.20;2.42;;;;;;;13.93;55.46;99282.97;4862428;29;20049;-73
2021/10/25 10:26:15;;;;;;;3.53;2.67;;;;;;;14.83;54.78;99279.84;4862470;29;20105;-73
2021/10/25 10:28:49;;;;;;;3.55;2.15;;;;;;;15.36;52.45;99277.47;4862558;29;20279;-73
2021/10/25 10:31:19;;;;;;;2.05;1.85;;;;;;;17.24;48.38;99276.53;4916100;23;20106;-71
2021/10/25 10:33:46;;;;;;;3.53;2.58;;;;;;;17.19;46.99;99268.84;4862376;29;20037;-72
2021/10/25 10:36:13;;;;;;;2.70;2.17;;;;;;;20.06;41.04;99267.97;4862432;29;20117;-72
2021/10/25 10:38:46;;;;;;;2.85;2.15;;;;;;;19.61;41.42;99269.25;4862445;29;20113;-72
2021/10/25 10:41:14;;;;;;;2.47;2.05;;;;;;;17.38;45.51;99278.63;4864227;29;20032;-72
2021/10/25 10:43:39;;;;;;;3.00;1.92;;;;;;;16.48;49.39;99284.44;4872884;29;20033;-72
2021/10/25 10:46:11;;;;;;;2.15;1.90;;;;;;;16.00;49.62;99285.97;4880548;29;20048;-71
2021/10/25 10:48:39;;;;;;;1.70;1.60;;;;;;;15.48;51.94;99287.56;4880721;29;20035;-71
2021/10/25 10:51:10;;;;;;;2.30;2.08;;;;;;;15.18;53.44;99286.69;4880328;29;20027;-71
2021/10/25 10:53:42;;;;;;;2.30;1.55;;;;;;;16.38;51.34;99289.13;4880752;29;20040;-71
2021/10/25 10:56:27;;;;;;;2.63;1.95;;;;;;;17.27;48.54;99275.56;4880505;29;20044;-72
2021/10/25 11:01:30;;;;;;;2.53;1.33;;;;;;;18.54;44.32;99258.25;4880197;29;20055;-72
2021/10/25 11:04:01;;;;;;;3.25;2.45;;;;;;;17.52;46.02;99258.00;4879397;29;20479;-72
2021/10/25 11:06:34;;;;;;;2.10;1.55;;;;;;;17.92;45.18;99253.84;4880301;29;20521;-72
2021/10/25 11:09:08;;;;;;;5.05;1.40;;;;;;;17.28;46.06;99254.53;4880243;29;20281;-72
2021/10/25 11:11:36;;;;;;;1.50;1.40;;;;;;;17.50;46.63;99251.94;4878633;29;20466;-72
2021/10/25 11:14:04;;;;;;;8.23;2.13;;;;;;;17.83;46.29;99246.34;4872484;29;20410;-72
2021/10/25 11:16:44;;;;;;;1.90;1.70;;;;;;;17.18;47.24;99248.78;4880151;29;20028;-72
2021/10/25 11:19:11;;;;;;;1.52;1.42;;;;;;;18.07;45.96;99241.88;4880070;29;20031;-72
2021/10/25 11:21:39;;;;;;;6.95;1.48;;;;;;;18.49;45.51;99236.59;4879662;29;20437;-72
2021/10/25 11:24:10;;;;;;;1.52;1.42;;;;;;;19.76;42.39;99239.59;4880124;29;20025;-72
2021/10/25 11:26:43;;;;;;;1.83;1.17;;;;;;;21.27;39.13;99228.38;4880310;29;20402;-72
2021/10/25 11:29:21;;;;;;;1.52;1.42;;;;;;;22.22;37.08;99225.69;4880057;29;20398;-72
2021/10/25 11:31:48;;;;;;;2.10;1.60;;;;;;;23.37;35.20;99220.53;4879472;29;20055;-72
2021/10/25 11:34:22;;;;;;;4.53;1.83;;;;;;;25.08;32.77;99209.09;4880075;29;20120;-72
2021/10/25 11:37:02;;;;;;;2.75;1.48;;;;;;;24.44;32.94;99214.38;4880003;29;20057;-72
2021/10/25 11:39:44;;;;;;;1.70;1.02;;;;;;;25.93;30.65;99203.88;4879835;29;20033;-72
2021/10/25 11:42:12;;;;;;;1.85;1.35;;;;;;;25.68;30.83;99203.00;4875905;29;20025;-72
2021/10/25 11:44:40;;;;;;;3.90;1.70;;;;;;;26.09;30.83;99201.75;4874788;29;20052;-72
2021/10/25 11:47:36;;;;;;;1.52;1.42;;;;;;;26.51;29.94;99197.66;4878401;29;20056;-72
2021/10/25 11:50:08;;;;;;;1.65;1.50;;;;;;;26.78;29.62;99199.13;4879161;29;20157;-72
2021/10/25 11:52:39;;;;;;;1.50;1.05;;;;;;;26.56;28.12;99190.19;4868013;29;20414;-72
2021/10/25 11:55:06;;;;;;;3.20;1.63;;;;;;;26.60;29.30;99188.16;4880520;29;20487;-73
2021/10/25 11:57:31;;;;;;;4.13;1.17;;;;;;;27.88;28.14;99191.16;4879505;29;20126;-71
2021/10/25 12:00:08;;;;;;;1.23;0.90;;;;;;;28.55;26.57;99183.81;4879227;29;20104;-70
2021/10/25 12:02:36;;;;;;;0.63;0.63;;;;;;;27.82;26.44;99182.84;4879137;29;20069;-71
2021/10/25 12:05:06;;;;;;;1.15;0.90;;;;;;;25.47;30.13;99181.50;4879177;29;20104;-71
2021/10/25 12:07:32;;;;;;;1.00;0.95;;;;;;;22.77;33.60;99180.13;4879285;29;20029;-70
2021/10/25 12:10:04;;;;;;;0.80;0.77;;;;;;;21.83;36.96;99180.47;4878604;29;20033;-70
2021/10/25 12:12:30;;;;;;;2.28;1.05;;;;;;;20.77;38.91;99179.25;4872838;29;20025;-70
2021/10/25 12:14:59;;;;;;;1.55;1.00;;;;;;;19.71;40.45;99191.63;4876083;29;20033;-70
2021/10/25 12:17:34;;;;;;;0.70;0.70;;;;;;;18.00;44.31;99187.97;4879084;29;20594;-70
2021/10/25 12:20:08;;;;;;;0.80;0.80;;;;;;;18.28;42.56;99177.19;4879045;29;20039;-70
2021/10/25 12:22:34;;;;;;;2.22;1.50;;;;;;;18.59;43.67;99171.44;4878909;29;20439;-70
2021/10/25 12:25:00;;;;;;;1.15;0.80;;;;;;;18.26;42.85;99174.59;4879016;29;20103;-70
2021/10/25 12:27:42;;;;;;;0.95;0.88;;;;;;;18.77;42.35;99159.31;4879007;29;20029;-70
2021/10/25 12:30:16;;;;;;;1.10;0.95;;;;;;;18.64;42.56;99157.19;4878623;29;20426;-71
2021/10/25 12:32:59;;;;;;;0.63;0.63;;;;;;;18.08;41.69;99155.25;4878663;29;20025;-72
2021/10/25 12:35:44;;;;;;;0.70;0.70;;;;;;;18.19;42.60;99147.78;4878894;29;20116;-72
2021/10/25 12:38:19;;;;;;;1.77;0.77;;;;;;;17.82;41.54;99147.63;4878732;29;20040;-72
2021/10/25 12:41:00;;;;;;;1.40;0.70;;;;;;;18.04;42.45;99147.59;4878427;29;20025;-72
2021/10/25 12:43:37;;;;;;;2.03;1.20;;;;;;;17.56;43.34;99136.44;4861223;29;20029;-72
2021/10/25 12:46:06;;;;;;;0.63;0.63;;;;;;;17.86;44.39;99134.34;4860064;29;20040;-72
2021/10/25 12:48:46;;;;;;;0.98;0.98;;;;;;;18.34;43.01;99134.94;4860134;29;20030;-72
2021/10/25 12:51:12;;;;;;;0.70;0.65;;;;;;;18.27;43.41;99130.84;4859558;29;20025;-72
2021/10/25 12:53:48;;;;;;;0.50;0.50;;;;;;;17.72;43.36;99132.25;4859917;29;20506;-72
2021/10/25 12:56:24;;;;;;;1.08;0.88;;;;;;;17.48;43.04;99122.78;4860016;29;20033;-72
2021/10/25 12:59:14;;;;;;;0.68;0.68;;;;;;;17.36;43.16;99128.53;4859915;29;20029;-72
2021/10/25 13:01:59;;;;;;;2.13;1.48;;;;;;;17.09;43.58;99126.06;4859567;29;20029;-72
2021/10/25 13:04:26;;;;;;;1.02;0.95;;;;;;;17.07;44.23;99127.06;4859674;29;20045;-72
2021/10/25 13:06:52;;;;;;;2.40;1.10;;;;;;;17.44;46.22;99119.44;4859910;29;20100;-68
2021/10/25 13:09:18;;;;;;;2.10;1.45;;;;;;;17.31;44.11;99130.44;4859766;29;20460;-69
2021/10/25 13:11:45;;;;;;;1.75;0.73;;;;;;;17.43;44.42;99120.34;4865765;29;20029;-72
2021/10/25 13:14:11;;;;;;;2.60;0.68;;;;;;;17.37;43.83;99128.47;4870741;29;20039;-68
2021/10/25 13:16:45;;;;;;;3.00;0.85;;;;;;;17.16;44.23;99126.66;4878243;29;20029;-71
2021/10/25 13:19:15;;;;;;;1.13;0.80;;;;;;;17.13;42.53;99127.66;4878273;29;20025;-68
2021/10/25 13:21:41;;;;;;;0.70;0.70;;;;;;;17.27;43.89;99121.03;4878040;29;20452;-68
2021/10/25 13:24:08;;;;;;;1.80;0.95;;;;;;;17.26;42.99;99119.31;4882170;29;20060;-68
2021/10/25 13:26:35;;;;;;;0.50;0.50;;;;;;;17.24;41.49;99122.00;4882019;29;20032;-71
2021/10/25 13:29:00;;;;;;;1.17;0.80;;;;;;;17.40;42.25;99114.38;4882074;29;20629;-71
2021/10/25 13:31:26;;;;;;;1.33;1.23;;;;;;;17.03;42.57;99115.84;4881620;29;20052;-72
2021/10/25 13:33:51;;;;;;;5.18;1.00;;;;;;;17.05;43.69;99111.38;4881961;29;20032;-72
2021/10/25 13:36:16;;;;;;;2.67;1.95;;;;;;;17.57;42.51;99108.47;4881911;29;20044;-72
2021/10/25 13:38:42;;;;;;;3.65;0.90;;;;;;;17.87;41.07;99111.59;4882407;29;20039;-72
2021/10/25 13:41:07;;;;;;;0.70;0.70;;;;;;;18.19;43.23;99103.22;4880015;29;20055;-71
2021/10/25 13:43:33;;;;;;;1.15;0.85;;;;;;;18.18;39.32;99098.88;4873894;29;20036;-74
2021/10/25 13:45:58;;;;;;;1.17;1.08;;;;;;;18.41;40.46;99094.38;4881820;29;20029;-74
2021/10/25 13:48:24;;;;;;;0.88;0.88;;;;;;;18.78;39.80;99090.13;4881758;29;20360;-73
2021/10/25 13:50:49;;;;;;;2.20;1.05;;;;;;;18.02;39.78;99086.50;4881551;29;20029;-74
2021/10/25 13:53:15;;;;;;;1.52;0.98;;;;;;;18.00;40.48;99091.81;4881481;29;20040;-74
2021/10/25 13:55:40;;;;;;;0.57;0.57;;;;;;;17.78;40.35;99093.63;4881617;29;20107;-74
2021/10/25 13:58:06;;;;;;;0.68;0.60;;;;;;;17.86;41.40;99081.91;4880270;29;20390;-73
2021/10/25 14:00:32;;;;;;;0.60;0.60;;;;;;;17.40;42.31;99088.19;4881560;29;20028;-74
2021/10/25 14:02:58;;;;;;;2.55;1.10;;;;;;;17.32;43.85;99079.78;4881683;29;20037;-74
2021/10/25 14:05:23;;;;;;;0.80;0.80;;;;;;;17.18;42.96;99083.81;4881417;29;20021;-74
2021/10/25 14:07:49;;;;;;;2.80;0.82;;;;;;;17.24;44.21;99084.47;4881892;29;20033;-73
2021/10/25 14:12:43;;;;;;;1.27;0.90;;;;;;;16.85;44.04;99074.66;4872358;29;20037;-74
2021/10/25 14:17:42;;;;;;;3.95;0.82;;;;;;;16.89;43.57;99076.25;4881550;29;20048;-73
2021/10/25 14:20:08;;;;;;;3.60;0.70;;;;;;;16.85;44.29;99074.66;4881110;29;20112;-74
2021/10/25 14:22:33;;;;;;;0.50;0.50;;;;;;;17.14;44.54;99077.00;4881060;29;20157;-74
2021/10/25 14:24:59;;;;;;;3.97;1.23;;;;;;;17.15;43.44;99068.22;4881007;29;20051;-74
2021/10/25 14:27:25;;;;;;;0.95;0.95;;;;;;;16.96;44.00;99072.47;4881064;29;20041;-73
2021/10/25 14:29:51;;;;;;;2.90;1.23;;;;;;;17.12;44.06;99078.84;4880726;29;20029;-72
2021/10/25 14:32:16;;;;;;;2.97;1.35;;;;;;;17.03;44.65;99068.72;4880759;29;20040;-72
2021/10/25 14:34:42;;;;;;;3.67;1.70;;;;;;;17.03;44.26;99071.34;4879322;29;20089;-72
2021/10/25 14:37:08;;;;;;;1.63;1.15;;;;;;;17.01;44.69;99072.28;4880963;29;20036;-72
2021/10/25 14:39:45;;;;;;;2.25;1.00;;;;;;;17.16;44.90;99069.94;4880836;29;20032;-72
2021/10/25 14:42:24;;;;;;;2.20;1.27;;;;;;;16.92;45.09;99070.88;4874198;29;20036;-72
2021/10/25 14:55:24;;;;;;;1.67;0.80;;;;;;;16.35;47.85;99056.47;4880848;29;20101;-72
2021/10/25 14:57:49;;;;;;;2.72;0.90;;;;;;;16.18;47.61;99060.53;4880600;29;20057;-72
2021/10/25 15:00:15;;;;;;;1.52;1.13;;;;;;;15.94;47.50;99056.19;4880336;29;20116;-72
2021/10/25 15:02:41;;;;;;;0.70;0.70;;;;;;;15.76;48.17;99056.84;4880421;29;20396;-72
2021/10/25 15:05:12;;;;;;;1.48;0.80;;;;;;;15.55;49.30;99061.84;4880452;29;20056;-72
2021/10/25 15:07:42;;;;;;;1.55;0.80;;;;;;;15.38;50.04;99054.59;4880414;29;20398;-71
2021/10/25 15:10:08;;;;;;;1.15;1.10;;;;;;;15.07;52.29;99065.16;4880294;29;20033;-71
2021/10/25 15:12:33;;;;;;;0.77;0.77;;;;;;;14.95;52.61;99055.13;4873625;29;20105;-71
2021/10/25 15:14:59;;;;;;;1.88;1.25;;;;;;;14.57;56.01;99048.47;4877499;29;20551;-72
2021/10/25 15:17:24;;;;;;;3.55;2.60;;;;;;;14.19;58.63;99054.75;4880107;29;20029;-71
2021/10/25 15:19:50;;;;;;;7.85;1.83;;;;;;;13.94;59.92;99052.81;4880030;29;20535;-71
2021/10/25 15:22:17;;;;;;;1.70;1.30;;;;;;;13.75;61.88;99051.59;4879885;29;20400;-71
2021/10/25 15:24:51;;;;;;;1.25;0.82;;;;;;;13.42;63.46;99062.00;4880119;29;20053;-71
2021/10/25 15:27:19;;;;;;;1.33;1.13;;;;;;;13.22;64.37;99056.41;4879920;29;20041;-71
2021/10/25 15:29:47;;;;;;;2.03;1.48;;;;;;;12.93;65.22;99060.53;4880124;29;20052;-71
2021/10/25 15:32:14;;;;;;;0.68;0.68;;;;;;;12.79;66.37;99057.38;4879546;29;20039;-71
2021/10/25 15:34:41;;;;;;;0.95;0.93;;;;;;;12.68;67.22;99054.19;4879812;29;20037;-71
2021/10/25 15:37:17;;;;;;;0.60;0.60;;;;;;;12.65;67.13;99054.22;4879680;29;20036;-71
2021/10/25 15:39:43;;;;;;;1.42;1.00;;;;;;;12.51;67.38;99057.97;4879608;29;20077;-71
2021/10/25 15:42:10;;;;;;;1.15;0.98;;;;;;;12.46;67.75;99059.81;4876211;29;20028;-72
2021/10/25 15:44:36;;;;;;;3.55;1.48;;;;;;;12.37;68.35;99064.34;4873535;29;20397;-71
2021/10/25 15:47:02;;;;;;;1.65;1.42;;;;;;;12.23;68.81;99064.63;4879527;29;20033;-71
2021/10/25 15:49:28;;;;;;;1.45;1.35;;;;;;;12.16;69.21;99060.47;4879500;29;20047;-71
2021/10/25 15:51:53;;;;;;;1.40;1.30;;;;;;;12.08;69.56;99058.84;4879235;29;20025;-71
2021/10/25 15:54:19;;;;;;;1.90;1.60;;;;;;;11.98;70.37;99054.72;4879278;29;20456;-71
2021/10/25 15:56:45;;;;;;;1.40;1.23;;;;;;;11.86;69.78;99052.38;4879444;29;20032;-71
2021/10/25 15:59:11;;;;;;;3.55;1.63;;;;;;;11.80;70.25;99048.13;4879494;29;20029;-71
2021/10/25 16:01:37;;;;;;;1.00;0.93;;;;;;;11.77;68.82;99055.09;4879550;29;20107;-71
2021/10/25 16:04:02;;;;;;;1.20;0.82;;;;;;;11.51;71.77;99061.63;4879248;29;20104;-71
2021/10/25 16:06:29;;;;;;;1.05;0.85;;;;;;;11.47;70.67;99059.97;4879735;29;20033;-71
2021/10/25 16:08:55;;;;;;;0.90;0.90;;;;;;;11.45;70.52;99056.53;4879104;29;20025;-71
2021/10/25 16:11:20;;;;;;;1.30;1.08;;;;;;;11.39;71.51;99056.63;4877203;29;20025;-71
2021/10/25 16:13:46;;;;;;;3.28;1.80;;;;;;;11.29;72.53;99055.06;4871250;29;20474;-71
2021/10/25 16:16:11;;;;;;;0.95;0.95;;;;;;;11.12;73.83;99054.47;4879240;29;20025;-71
2021/10/25 16:18:38;;;;;;;0.98;0.63;;;;;;;11.06;74.47;99053.69;4879068;29;20041;-71
2021/10/25 16:21:04;;;;;;;0.95;0.95;;;;;;;10.96;74.86;99056.47;4864064;29;20029;-71
2021/10/25 16:23:29;;;;;;;0.88;0.88;;;;;;;10.87;74.58;99052.25;4864560;29;20029;-71
2021/10/25 16:25:55;;;;;;;2.22;1.48;;;;;;;10.82;74.35;99047.13;4870991;29;20017;-78
2021/10/25 16:28:22;;;;;;;4.20;1.90;;;;;;;10.78;75.46;99055.88;4860375;29;20372;-74
2021/10/25 16:30:47;;;;;;;0.60;0.60;;;;;;;10.71;74.37;99059.41;4860092;29;20041;-74
2021/10/25 16:33:15;;;;;;;0.90;0.90;;;;;;;10.80;74.07;99061.03;4860652;29;20104;-69
2021/10/25 16:35:42;;;;;;;1.25;1.15;;;;;;;10.86;73.94;99058.31;4860246;29;20077;-69
2021/10/25 16:38:11;;;;;;;2.00;1.05;;;;;;;10.77;74.71;99055.88;4860167;29;20040;-69
2021/10/25 16:40:37;;;;;;;1.42;1.30;;;;;;;10.67;75.57;99060.31;4860008;29;20387;-69
2021/10/25 16:43:03;;;;;;;2.80;1.35;;;;;;;10.54;76.44;99064.84;4867333;29;20499;-70
2021/10/25 16:45:29;;;;;;;3.85;2.00;;;;;;;10.45;77.14;99059.78;4877362;29;20036;-71
2021/10/25 16:47:56;;;;;;;0.90;0.90;;;;;;;10.40;78.19;99061.56;4876891;29;20047;-71
2021/10/25 16:50:22;;;;;;;2.67;1.80;;;;;;;10.34;78.78;99061.63;4876593;29;20028;-73
2021/10/25 16:52:56;;;;;;;2.40;1.73;;;;;;;10.20;78.85;99071.25;4876418;29;20021;-73
2021/10/25 17:11:06;;;;;;;1.30;1.20;;;;;;;10.11;81.88;99087.78;4876816;29;20170;-70
2021/10/25 17:13:33;;;;;;;1.83;1.73;;;;;;;10.05;82.30;99088.69;4870637;29;20108;-74
2021/10/25 17:16:00;;;;;;;4.10;1.35;;;;;;;10.01;82.17;99089.59;4878371;29;20036;-70
2021/10/25 17:18:26;;;;;;;1.92;1.35;;;;;;;9.97;82.65;99093.09;4878580;29;20112;-71
2021/10/25 17:20:52;;;;;;;3.97;1.35;;;;;;;9.97;82.87;99097.41;4878303;29;20057;-71
2021/10/25 17:23:19;;;;;;;1.67;1.58;;;;;;;9.95;82.28;99089.66;4878043;29;20027;-71
2021/10/25 17:25:46;;;;;;;1.38;1.30;;;;;;;9.91;81.87;99094.88;4878213;29;20025;-70
2021/10/25 17:28:12;;;;;;;1.50;1.40;;;;;;;9.80;81.71;99097.56;4877105;29;20132;-71
2021/10/25 17:30:37;;;;;;;3.00;1.95;;;;;;;9.86;80.92;99088.88;4877933;29;20068;-71
2021/10/25 17:33:03;;;;;;;1.48;1.38;;;;;;;9.88;80.47;99088.00;4877915;29;20059;-71
2021/10/25 17:35:29;;;;;;;4.10;1.70;;;;;;;9.86;81.77;99094.91;4878257;29;20064;-71
2021/10/25 17:37:54;;;;;;;1.20;1.13;;;;;;;9.72;83.62;99107.16;4878425;29;20020;-71
2021/10/25 17:40:24;;;;;;;1.30;1.20;;;;;;;9.63;84.37;99102.91;4878022;29;20533;-71
2021/10/25 17:42:53;;;;;;;3.22;2.13;;;;;;;9.57;85.03;99107.28;4868981;29;20018;-71
2021/10/25 17:45:20;;;;;;;3.00;2.00;;;;;;;9.54;84.92;99108.16;4877805;29;20487;-71
2021/10/25 17:47:46;;;;;;;4.15;2.00;;;;;;;9.56;85.28;99105.56;4877988;29;20039;-71
2021/10/25 17:50:11;;;;;;;4.93;2.33;;;;;;;9.46;85.28;99110.81;4877993;29;20394;-71
2021/10/25 17:52:36;;;;;;;2.75;1.98;;;;;;;9.33;86.35;99116.97;4877744;29;20029;-71
2021/10/25 17:55:03;;;;;;;2.97;2.33;;;;;;;9.28;87.18;99116.13;4877976;29;20025;-71